createdAt,value
2019-04-07T00:02:50.667Z,17.73
2019-04-07T00:07:55.240Z,20.20
2019-04-07T00:12:57.589Z,19.30
2019-04-07T00:17:59.504Z,19.63
2019-04-07T00:23:01.380Z,18.93
2019-04-07T00:28:03.332Z,18.83
2019-04-07T00:33:05.185Z,19.00
2019-04-07T00:38:08.342Z,18.57
2019-04-07T00:43:11.308Z,18.50
2019-04-07T00:48:13.858Z,19.37
2019-04-07T00:53:16.373Z,19.47
2019-04-07T00:58:18.236Z,18.20
2019-04-07T01:03:20.438Z,18.50
2019-04-07T01:08:22.840Z,18.67
2019-04-07T01:13:24.844Z,19.00
2019-04-07T01:18:31.728Z,19.70
2019-04-07T01:23:33.808Z,19.77
2019-04-07T01:28:36.271Z,18.70
2019-04-07T01:33:38.973Z,19.30
2019-04-07T01:38:42.161Z,19.30
2019-04-07T01:43:53.592Z,19.03
2019-04-07T01:49:10.999Z,19.03
2019-04-07T01:54:39.526Z,18.70
2019-04-07T02:00:01.925Z,19.20
2019-04-07T02:05:25.297Z,18.57
2019-04-07T02:10:36.264Z,18.47
2019-04-07T02:15:48.576Z,18.30
2019-04-07T02:21:24.899Z,18.03
2019-04-07T02:26:36.858Z,17.93
2019-04-07T02:31:55.769Z,17.10
2019-04-07T02:37:20.593Z,17.67
2019-04-07T02:42:46.411Z,18.43
2019-04-07T02:47:56.430Z,18.63
2019-04-07T02:53:20.411Z,18.40
2019-04-07T02:58:38.567Z,18.80
2019-04-07T03:03:50.293Z,18.27
2019-04-07T03:09:07.518Z,17.53
2019-04-07T03:14:35.289Z,17.07
2019-04-07T03:19:52.424Z,17.77
2019-04-07T03:25:03.758Z,18.00
2019-04-07T03:30:27.078Z,17.77
2019-04-07T03:35:44.841Z,17.67
2019-04-07T03:40:59.823Z,18.27
2019-04-07T03:46:25.289Z,18.37
2019-04-07T03:51:36.509Z,18.20
2019-04-07T03:56:56.399Z,18.03
2019-04-07T04:02:19.664Z,18.77
2019-04-07T04:07:33.052Z,19.70
2019-04-07T04:12:51.564Z,18.73
2019-04-07T04:17:53.921Z,18.57
2019-04-07T04:22:55.945Z,19.67
2019-04-07T04:27:59.246Z,19.07
2019-04-07T04:33:02.116Z,18.40
2019-04-07T04:38:04.288Z,17.87
2019-04-07T04:43:07.363Z,19.30
2019-04-07T04:48:09.330Z,19.27
2019-04-07T04:53:11.302Z,19.30
2019-04-07T04:58:13.169Z,19.40
2019-04-07T05:03:15.047Z,21.33
2019-04-07T05:08:17.585Z,20.20
2019-04-07T05:13:20.300Z,19.77
2019-04-07T05:18:22.929Z,20.07
2019-04-07T05:23:25.216Z,20.10
2019-04-07T05:28:27.702Z,19.50
2019-04-07T05:33:31.100Z,20.20
2019-04-07T05:38:33.486Z,20.07
2019-04-07T05:43:35.752Z,19.67
2019-04-07T05:48:38.286Z,19.47
2019-04-07T05:53:44.073Z,19.53
2019-04-07T05:58:46.243Z,19.63
2019-04-07T06:03:48.613Z,20.70
2019-04-07T06:08:51.800Z,19.60
2019-04-07T06:13:54.413Z,20.17
2019-04-07T06:18:56.571Z,20.30
2019-04-07T06:24:00.620Z,21.37
2019-04-07T06:29:03.667Z,20.13
2019-04-07T06:34:08.161Z,20.03
2019-04-07T06:39:10.024Z,20.37
2019-04-07T06:44:16.594Z,20.07
2019-04-07T06:49:22.919Z,18.57
2019-04-07T06:54:45.172Z,19.80
2019-04-07T07:00:08.143Z,19.67
2019-04-07T07:05:34.441Z,19.27
2019-04-07T07:10:58.307Z,19.93
2019-04-07T07:16:15.816Z,20.10
2019-04-07T07:21:24.889Z,19.60
2019-04-07T07:26:28.326Z,19.77
2019-04-07T07:31:30.971Z,19.40
2019-04-07T07:36:33.834Z,19.27
2019-04-07T07:41:36.573Z,19.67
2019-04-07T07:46:38.606Z,18.80
2019-04-07T07:51:45.104Z,18.67
2019-04-07T07:56:48.611Z,18.23
2019-04-07T08:01:51.163Z,18.77
2019-04-07T08:06:53.415Z,17.97
2019-04-07T08:11:55.465Z,18.03
2019-04-07T08:17:00.222Z,17.03
2019-04-07T08:22:02.931Z,16.63
2019-04-07T08:27:06.301Z,18.17
2019-04-07T08:32:08.616Z,16.27
2019-04-07T08:37:14.362Z,16.07
2019-04-07T08:42:18.584Z,16.60
2019-04-07T08:47:22.182Z,16.97
2019-04-07T08:52:24.043Z,20.00
2019-04-07T08:57:29.274Z,15.00
2019-04-07T09:02:31.059Z,14.10
2019-04-07T09:07:34.807Z,15.27
2019-04-07T09:12:37.285Z,14.20
2019-04-07T09:17:56.634Z,14.83
2019-04-07T09:23:20.052Z,14.60
2019-04-07T09:28:31.611Z,14.47
2019-04-07T09:34:12.040Z,13.97
2019-04-07T09:39:50.652Z,12.17
2019-04-07T09:44:47.451Z,12.13
2019-04-07T09:50:12.802Z,13.17
2019-04-07T09:55:28.728Z,12.47
2019-04-07T10:00:45.445Z,11.93
2019-04-07T10:06:05.404Z,12.43
2019-04-07T10:11:39.149Z,11.87
2019-04-07T10:17:07.561Z,11.27
2019-04-07T10:22:22.626Z,11.17
2019-04-07T10:27:43.061Z,11.40
2019-04-07T10:33:04.760Z,11.77
2019-04-07T10:38:14.286Z,11.70
2019-04-07T10:43:26.189Z,11.77
2019-04-07T10:48:36.514Z,11.70
2019-04-07T10:53:44.963Z,11.73
2019-04-07T10:58:57.207Z,11.07
2019-04-07T11:04:37.543Z,11.40
2019-04-07T11:10:05.143Z,11.67
2019-04-07T11:15:30.674Z,11.80
2019-04-07T11:20:47.245Z,11.77
2019-04-07T11:25:59.422Z,12.33
2019-04-07T11:31:15.737Z,12.17
2019-04-07T11:36:35.302Z,11.53
2019-04-07T11:42:16.989Z,11.73
2019-04-07T11:47:29.895Z,10.60
2019-04-07T11:52:39.838Z,11.50
2019-04-07T11:58:02.979Z,11.67
2019-04-07T12:03:11.760Z,12.57
2019-04-07T12:08:37.624Z,11.37
2019-04-07T12:14:15.157Z,11.63
2019-04-07T12:19:38.743Z,11.60
2019-04-07T12:24:57.455Z,11.60
2019-04-07T12:30:15.525Z,11.67
2019-04-07T12:35:34.280Z,11.13
2019-04-07T12:40:59.494Z,11.57
2019-04-07T12:46:10.216Z,11.83
2019-04-07T12:51:28.860Z,11.10
2019-04-07T12:56:57.931Z,12.20
2019-04-07T13:02:10.202Z,11.60
2019-04-07T13:07:42.178Z,12.70
2019-04-07T13:12:58.000Z,11.67
2019-04-07T13:18:35.598Z,11.57
2019-04-07T13:24:06.202Z,11.70
2019-04-07T13:29:11.796Z,11.60
2019-04-07T13:34:24.770Z,11.03
2019-04-07T13:39:39.218Z,11.37
2019-04-07T13:44:55.913Z,12.80
2019-04-07T13:50:19.208Z,11.73
2019-04-07T13:55:43.122Z,11.53
2019-04-07T14:01:05.023Z,11.60
2019-04-07T14:06:33.998Z,11.43
2019-04-07T14:12:08.912Z,10.90
2019-04-07T14:17:28.714Z,11.07
2019-04-07T14:22:46.571Z,10.80
2019-04-07T14:28:17.905Z,11.67
2019-04-07T14:33:39.263Z,10.93
2019-04-07T14:38:51.114Z,11.87
2019-04-07T14:44:12.895Z,11.23
2019-04-07T14:49:27.381Z,13.50
2019-04-07T14:54:56.978Z,10.77
2019-04-07T15:00:07.693Z,10.40
2019-04-07T15:05:15.962Z,9.77
2019-04-07T15:10:21.984Z,10.63
2019-04-07T15:15:24.777Z,10.60
2019-04-07T15:20:27.042Z,10.53
2019-04-07T15:25:29.691Z,11.00
2019-04-07T15:30:31.800Z,10.50
2019-04-07T15:35:35.241Z,10.27
2019-04-07T15:40:40.776Z,10.90
2019-04-07T15:45:44.460Z,10.63
2019-04-07T15:50:47.461Z,10.07
2019-04-07T15:55:57.305Z,10.50
2019-04-07T16:00:54.848Z,11.20
2019-04-07T16:05:56.894Z,11.27
2019-04-07T16:10:59.534Z,10.40
2019-04-07T16:16:02.657Z,11.07
2019-04-07T16:21:08.858Z,11.13
2019-04-07T16:26:10.707Z,11.30
2019-04-07T16:31:13.326Z,11.53
2019-04-07T16:36:15.356Z,10.47
2019-04-07T16:41:17.824Z,10.70
2019-04-07T16:46:23.225Z,10.67
2019-04-07T16:51:27.895Z,10.80
2019-04-07T16:56:29.188Z,10.50
2019-04-07T17:01:31.519Z,10.80
2019-04-07T17:06:35.834Z,10.50
2019-04-07T17:11:39.756Z,10.67
2019-04-07T17:16:44.341Z,10.67
2019-04-07T17:21:45.663Z,10.70
2019-04-07T17:26:47.450Z,9.83
2019-04-07T17:31:49.798Z,10.17
2019-04-07T17:36:55.860Z,9.60
2019-04-07T17:41:57.509Z,10.27
2019-04-07T17:47:29.395Z,10.87
2019-04-07T17:52:44.740Z,10.57
2019-04-07T17:58:22.167Z,11.13
2019-04-07T18:03:45.112Z,11.87
2019-04-07T18:09:10.805Z,11.10
2019-04-07T18:14:36.269Z,12.13
2019-04-07T18:19:48.489Z,12.97
2019-04-07T18:25:05.175Z,12.43
2019-04-07T18:30:37.314Z,12.43
2019-04-07T18:35:45.230Z,12.37
2019-04-07T18:41:10.087Z,13.27
2019-04-07T18:46:23.744Z,13.30
2019-04-07T18:51:40.246Z,12.00
2019-04-07T18:56:55.784Z,12.73
2019-04-07T19:02:24.882Z,12.90
2019-04-07T19:07:51.735Z,12.33
2019-04-07T19:13:12.779Z,12.37
2019-04-07T19:18:29.784Z,11.90
2019-04-07T19:23:43.613Z,11.90
2019-04-07T19:28:56.017Z,12.80
2019-04-07T19:34:20.528Z,13.83
2019-04-07T19:39:53.551Z,14.10
2019-04-07T19:45:22.888Z,11.53
2019-04-07T19:50:58.593Z,10.50
2019-04-07T19:56:29.428Z,10.83
2019-04-07T20:01:51.058Z,11.67
2019-04-07T20:07:10.162Z,12.27
2019-04-07T20:12:23.085Z,13.63
2019-04-07T20:17:39.320Z,13.47
2019-04-07T20:22:49.761Z,13.53
2019-04-07T20:28:13.124Z,12.87
2019-04-07T20:33:34.301Z,13.73
2019-04-07T20:38:44.486Z,13.43
2019-04-07T20:44:01.994Z,13.60
2019-04-07T20:49:30.814Z,14.17
2019-04-07T20:54:52.648Z,14.43
2019-04-07T21:00:18.619Z,14.50
2019-04-07T21:05:40.656Z,14.63
2019-04-07T21:11:07.659Z,15.07
2019-04-07T21:16:28.267Z,14.37
2019-04-07T21:21:57.539Z,14.77
2019-04-07T21:27:06.825Z,15.27
2019-04-07T21:32:18.845Z,14.80
2019-04-07T21:37:46.850Z,15.37
2019-04-07T21:43:05.983Z,16.03
2019-04-07T21:48:30.251Z,18.00
2019-04-07T21:54:01.349Z,22.47
2019-04-07T21:59:10.745Z,17.67
2019-04-07T22:04:21.057Z,16.43
2019-04-07T22:09:36.295Z,15.67
2019-04-07T22:14:42.713Z,16.07
2019-04-07T22:19:45.673Z,16.27
2019-04-07T22:24:49.500Z,15.70
2019-04-07T22:29:51.525Z,17.33
2019-04-07T22:34:54.439Z,16.73
2019-04-07T22:39:57.227Z,17.23
2019-04-07T22:45:00.164Z,16.70
2019-04-07T22:50:05.162Z,15.67
2019-04-07T22:55:19.157Z,16.63
2019-04-07T23:00:23.328Z,16.00
2019-04-07T23:05:25.711Z,16.57
2019-04-07T23:10:29.632Z,16.70
2019-04-07T23:15:41.021Z,16.93
2019-04-07T23:20:35.685Z,17.47
2019-04-07T23:25:38.503Z,16.40
2019-04-07T23:30:40.907Z,16.63
2019-04-07T23:35:42.904Z,17.23
2019-04-07T23:40:46.169Z,16.70
2019-04-07T23:45:48.484Z,16.47
2019-04-07T23:50:51.981Z,17.67
2019-04-07T23:55:55.261Z,16.80
